sensor_id;sensor_type;location;lat;lon;timestamp;pressure;altitude;pressure_sealevel;temperature;humidity
3178;BME280;38141;42.666;23.344;2024-03-06T00:01:44;94422.38;;;7.95;100.00
3178;BME280;38141;42.666;23.344;2024-03-06T00:04:12;94418.19;;;7.97;100.00
3178;BME280;38141;42.666;23.344;2024-03-06T00:06:39;94428.97;;;7.97;100.00
3178;BME280;38141;42.666;23.344;2024-03-06T00:09:07;94418.06;;;7.83;100.00
3178;BME280;38141;42.666;23.344;2024-03-06T00:11:34;94429.41;;;8.03;100.00
3178;BME280;38141;42.666;23.344;2024-03-06T00:14:02;94426.03;;;8.17;100.00
3178;BME280;38141;42.666;23.344;2024-03-06T00:16:30;94421.72;;;8.09;100.00
3178;BME280;38141;42.666;23.344;2024-03-06T00:18:57;94414.16;;;7.77;100.00
3178;BME280;38141;42.666;23.344;2024-03-06T00:21:24;94415.47;;;7.53;100.00
3178;BME280;38141;42.666;23.344;2024-03-06T00:23:51;94421.41;;;7.73;100.00
3178;BME280;38141;42.666;23.344;2024-03-06T00:26:20;94419.13;;;7.75;100.00
3178;BME280;38141;42.666;23.344;2024-03-06T00:28:47;94419.03;;;7.65;100.00
3178;BME280;38141;42.666;23.344;2024-03-06T00:31:14;94417.38;;;7.53;100.00
3178;BME280;38141;42.666;23.344;2024-03-06T00:33:41;94421.19;;;7.48;100.00
3178;BME280;38141;42.666;23.344;2024-03-06T00:36:08;94423.38;;;7.36;100.00
3178;BME280;38141;42.666;23.344;2024-03-06T00:38:35;94414.06;;;7.30;100.00
3178;BME280;38141;42.666;23.344;2024-03-06T00:41:02;94425.75;;;7.11;100.00
3178;BME280;38141;42.666;23.344;2024-03-06T00:43:31;94416.41;;;7.01;100.00
3178;BME280;38141;42.666;23.344;2024-03-06T00:45:58;94418.81;;;7.10;100.00
3178;BME280;38141;42.666;23.344;2024-03-06T00:48:26;94415.84;;;7.19;100.00
3178;BME280;38141;42.666;23.344;2024-03-06T00:50:53;94418.38;;;7.04;100.00
3178;BME280;38141;42.666;23.344;2024-03-06T00:53:20;94423.00;;;7.04;100.00
3178;BME280;38141;42.666;23.344;2024-03-06T00:55:47;94411.09;;;6.75;100.00
3178;BME280;38141;42.666;23.344;2024-03-06T00:58:14;94413.75;;;6.72;100.00
3178;BME280;38141;42.666;23.344;2024-03-06T01:00:43;94422.66;;;6.79;100.00
3178;BME280;38141;42.666;23.344;2024-03-06T01:03:10;94418.69;;;6.69;100.00
3178;BME280;38141;42.666;23.344;2024-03-06T01:05:37;94412.03;;;6.60;100.00
3178;BME280;38141;42.666;23.344;2024-03-06T01:08:04;94428.13;;;6.56;100.00
3178;BME280;38141;42.666;23.344;2024-03-06T01:10:31;94426.88;;;6.50;100.00
3178;BME280;38141;42.666;23.344;2024-03-06T01:12:58;94431.22;;;6.58;100.00
3178;BME280;38141;42.666;23.344;2024-03-06T01:15:26;94417.13;;;6.39;100.00
3178;BME280;38141;42.666;23.344;2024-03-06T01:17:54;94419.56;;;6.47;100.00
3178;BME280;38141;42.666;23.344;2024-03-06T01:20:22;94429.50;;;6.47;100.00
3178;BME280;38141;42.666;23.344;2024-03-06T01:22:50;94431.38;;;6.43;100.00
3178;BME280;38141;42.666;23.344;2024-03-06T01:25:17;94427.19;;;6.45;100.00
3178;BME280;38141;42.666;23.344;2024-03-06T01:27:44;94425.50;;;6.34;100.00
3178;BME280;38141;42.666;23.344;2024-03-06T01:30:11;94431.22;;;6.32;100.00
3178;BME280;38141;42.666;23.344;2024-03-06T01:32:38;94441.09;;;6.24;100.00
3178;BME280;38141;42.666;23.344;2024-03-06T01:35:07;94419.94;;;6.23;100.00
3178;BME280;38141;42.666;23.344;2024-03-06T01:37:34;94426.28;;;6.34;100.00
3178;BME280;38141;42.666;23.344;2024-03-06T01:40:02;94433.25;;;6.39;100.00
3178;BME280;38141;42.666;23.344;2024-03-06T01:42:30;94407.31;;;6.23;100.00
3178;BME280;38141;42.666;23.344;2024-03-06T01:44:57;94423.88;;;6.29;100.00
3178;BME280;38141;42.666;23.344;2024-03-06T01:47:24;94415.00;;;6.25;100.00
3178;BME280;38141;42.666;23.344;2024-03-06T01:49:51;94416.81;;;6.17;100.00
3178;BME280;38141;42.666;23.344;2024-03-06T01:52:21;94420.78;;;6.27;100.00
3178;BME280;38141;42.666;23.344;2024-03-06T01:54:49;94426.78;;;6.17;100.00
3178;BME280;38141;42.666;23.344;2024-03-06T01:57:17;94424.28;;;6.05;100.00
3178;BME280;38141;42.666;23.344;2024-03-06T01:59:46;94427.34;;;6.03;100.00
3178;BME280;38141;42.666;23.344;2024-03-06T02:02:14;94428.81;;;6.01;100.00
3178;BME280;38141;42.666;23.344;2024-03-06T02:04:41;94415.56;;;6.11;100.00
3178;BME280;38141;42.666;23.344;2024-03-06T02:07:09;94427.22;;;6.22;100.00
3178;BME280;38141;42.666;23.344;2024-03-06T02:09:39;94426.41;;;6.18;100.00
3178;BME280;38141;42.666;23.344;2024-03-06T02:12:06;94421.72;;;6.12;100.00
3178;BME280;38141;42.666;23.344;2024-03-06T02:14:34;94433.28;;;6.16;100.00
3178;BME280;38141;42.666;23.344;2024-03-06T02:17:01;94436.16;;;5.81;100.00
3178;BME280;38141;42.666;23.344;2024-03-06T02:19:37;94437.69;;;5.82;100.00
3178;BME280;38141;42.666;23.344;2024-03-06T02:22:07;94433.28;;;5.70;100.00
3178;BME280;38141;42.666;23.344;2024-03-06T02:24:35;94438.22;;;5.68;100.00
3178;BME280;38141;42.666;23.344;2024-03-06T02:27:03;94444.78;;;5.71;100.00
3178;BME280;38141;42.666;23.344;2024-03-06T02:29:31;94441.78;;;5.53;100.00
3178;BME280;38141;42.666;23.344;2024-03-06T02:31:58;94450.19;;;5.52;100.00
3178;BME280;38141;42.666;23.344;2024-03-06T02:34:28;94458.00;;;5.60;100.00
3178;BME280;38141;42.666;23.344;2024-03-06T02:36:55;94462.19;;;5.58;100.00
3178;BME280;38141;42.666;23.344;2024-03-06T02:39:24;94451.03;;;5.56;100.00
3178;BME280;38141;42.666;23.344;2024-03-06T02:41:51;94459.13;;;5.59;100.00
3178;BME280;38141;42.666;23.344;2024-03-06T02:44:18;94454.66;;;5.44;100.00
3178;BME280;38141;42.666;23.344;2024-03-06T02:46:47;94462.59;;;5.41;100.00
3178;BME280;38141;42.666;23.344;2024-03-06T02:49:15;94465.16;;;5.33;100.00
3178;BME280;38141;42.666;23.344;2024-03-06T02:51:42;94459.94;;;5.41;100.00
3178;BME280;38141;42.666;23.344;2024-03-06T02:54:09;94451.81;;;5.37;100.00
3178;BME280;38141;42.666;23.344;2024-03-06T02:56:37;94453.16;;;5.27;100.00
3178;BME280;38141;42.666;23.344;2024-03-06T02:59:04;94459.53;;;5.19;100.00
3178;BME280;38141;42.666;23.344;2024-03-06T03:01:31;94450.31;;;5.17;100.00
3178;BME280;38141;42.666;23.344;2024-03-06T03:03:58;94453.75;;;5.17;100.00
3178;BME280;38141;42.666;23.344;2024-03-06T03:06:25;94464.59;;;5.24;100.00
3178;BME280;38141;42.666;23.344;2024-03-06T03:08:52;94472.44;;;5.14;100.00
3178;BME280;38141;42.666;23.344;2024-03-06T03:11:19;94466.59;;;5.08;100.00
3178;BME280;38141;42.666;23.344;2024-03-06T03:13:48;94470.47;;;5.11;100.00
3178;BME280;38141;42.666;23.344;2024-03-06T03:16:16;94468.50;;;5.08;100.00
3178;BME280;38141;42.666;23.344;2024-03-06T03:18:44;94463.44;;;5.22;100.00
3178;BME280;38141;42.666;23.344;2024-03-06T03:21:11;94464.31;;;5.10;100.00
3178;BME280;38141;42.666;23.344;2024-03-06T03:23:38;94472.81;;;5.12;100.00
3178;BME280;38141;42.666;23.344;2024-03-06T03:26:06;94474.28;;;5.10;100.00
3178;BME280;38141;42.666;23.344;2024-03-06T03:28:33;94473.03;;;5.04;100.00
3178;BME280;38141;42.666;23.344;2024-03-06T03:31:01;94478.56;;;5.14;100.00
3178;BME280;38141;42.666;23.344;2024-03-06T03:33:28;94482.75;;;5.12;100.00
3178;BME280;38141;42.666;23.344;2024-03-06T03:35:55;94469.63;;;5.07;100.00
3178;BME280;38141;42.666;23.344;2024-03-06T03:38:22;94468.50;;;5.08;100.00
3178;BME280;38141;42.666;23.344;2024-03-06T03:40:49;94477.31;;;5.27;100.00
3178;BME280;38141;42.666;23.344;2024-03-06T03:43:16;94468.91;;;5.10;100.00
3178;BME280;38141;42.666;23.344;2024-03-06T03:45:45;94474.44;;;5.17;100.00
3178;BME280;38141;42.666;23.344;2024-03-06T03:48:13;94482.75;;;5.12;100.00
3178;BME280;38141;42.666;23.344;2024-03-06T03:50:40;94484.16;;;5.25;100.00
3178;BME280;38141;42.666;23.344;2024-03-06T03:53:07;94480.63;;;5.21;100.00
3178;BME280;38141;42.666;23.344;2024-03-06T03:55:34;94481.88;;;5.27;100.00
3178;BME280;38141;42.666;23.344;2024-03-06T03:58:01;94482.31;;;5.29;100.00
3178;BME280;38141;42.666;23.344;2024-03-06T04:00:28;94483.88;;;5.11;100.00
3178;BME280;38141;42.666;23.344;2024-03-06T04:02:56;94483.16;;;4.95;100.00
3178;BME280;38141;42.666;23.344;2024-03-06T04:05:25;94493.25;;;5.01;100.00
3178;BME280;38141;42.666;23.344;2024-03-06T04:07:52;94487.75;;;4.94;100.00
3178;BME280;38141;42.666;23.344;2024-03-06T04:10:19;94481.94;;;4.92;100.00
3178;BME280;38141;42.666;23.344;2024-03-06T04:12:46;94483.06;;;4.91;100.00
3178;BME280;38141;42.666;23.344;2024-03-06T04:15:13;94500.16;;;5.02;100.00
3178;BME280;38141;42.666;23.344;2024-03-06T04:17:40;94488.56;;;4.79;100.00
3178;BME280;38141;42.666;23.344;2024-03-06T04:20:08;94492.03;;;4.64;100.00
3178;BME280;38141;42.666;23.344;2024-03-06T04:22:38;94506.97;;;4.80;100.00
3178;BME280;38141;42.666;23.344;2024-03-06T04:25:06;94511.81;;;4.75;100.00
3178;BME280;38141;42.666;23.344;2024-03-06T04:27:33;94510.97;;;4.71;100.00
3178;BME280;38141;42.666;23.344;2024-03-06T04:30:00;94513.38;;;4.76;100.00
3178;BME280;38141;42.666;23.344;2024-03-06T04:32:27;94519.66;;;4.83;100.00
3178;BME280;38141;42.666;23.344;2024-03-06T04:34:54;94506.16;;;4.61;100.00
3178;BME280;38141;42.666;23.344;2024-03-06T04:37:22;94507.72;;;4.62;100.00
3178;BME280;38141;42.666;23.344;2024-03-06T04:39:50;94519.13;;;4.93;100.00
3178;BME280;38141;42.666;23.344;2024-03-06T04:42:17;94516.00;;;4.91;100.00
3178;BME280;38141;42.666;23.344;2024-03-06T04:44:45;94516.78;;;4.92;100.00
3178;BME280;38141;42.666;23.344;2024-03-06T04:47:12;94524.19;;;4.79;100.00
3178;BME280;38141;42.666;23.344;2024-03-06T04:49:39;94520.53;;;4.87;100.00
3178;BME280;38141;42.666;23.344;2024-03-06T04:52:06;94531.38;;;4.75;100.00
3178;BME280;38141;42.666;23.344;2024-03-06T04:54:34;94532.81;;;4.73;100.00
3178;BME280;38141;42.666;23.344;2024-03-06T04:57:03;94530.13;;;4.88;100.00
3178;BME280;38141;42.666;23.344;2024-03-06T04:59:30;94535.22;;;4.78;100.00
3178;BME280;38141;42.666;23.344;2024-03-06T05:01:57;94535.94;;;4.75;100.00
3178;BME280;38141;42.666;23.344;2024-03-06T05:04:24;94519.88;;;4.59;100.00
3178;BME280;38141;42.666;23.344;2024-03-06T05:07:44;94531.63;;;5.05;100.00
3178;BME280;38141;42.666;23.344;2024-03-06T05:10:11;94539.34;;;5.45;100.00
3178;BME280;38141;42.666;23.344;2024-03-06T05:12:38;94536.94;;;5.59;100.00
3178;BME280;38141;42.666;23.344;2024-03-06T05:15:05;94548.53;;;5.44;100.00
3178;BME280;38141;42.666;23.344;2024-03-06T05:17:34;94536.09;;;5.36;100.00
3178;BME280;38141;42.666;23.344;2024-03-06T05:20:01;94546.81;;;5.74;100.00
3178;BME280;38141;42.666;23.344;2024-03-06T05:22:29;94544.41;;;5.69;100.00
3178;BME280;38141;42.666;23.344;2024-03-06T05:24:57;94532.16;;;6.10;100.00
3178;BME280;38141;42.666;23.344;2024-03-06T05:27:25;94548.16;;;6.26;100.00
3178;BME280;38141;42.666;23.344;2024-03-06T05:29:52;94549.09;;;6.14;100.00
3178;BME280;38141;42.666;23.344;2024-03-06T05:32:19;94546.06;;;6.61;100.00
3178;BME280;38141;42.666;23.344;2024-03-06T05:34:46;94542.47;;;7.03;100.00
3178;BME280;38141;42.666;23.344;2024-03-06T05:37:13;94542.03;;;7.01;100.00
3178;BME280;38141;42.666;23.344;2024-03-06T05:39:40;94551.81;;;7.12;100.00
3178;BME280;38141;42.666;23.344;2024-03-06T05:42:09;94558.53;;;7.26;100.00
3178;BME280;38141;42.666;23.344;2024-03-06T05:44:36;94561.91;;;7.23;100.00
3178;BME280;38141;42.666;23.344;2024-03-06T05:47:03;94552.59;;;7.43;100.00
3178;BME280;38141;42.666;23.344;2024-03-06T05:49:32;94561.59;;;7.54;100.00
3178;BME280;38141;42.666;23.344;2024-03-06T05:52:00;94562.44;;;7.95;100.00
3178;BME280;38141;42.666;23.344;2024-03-06T05:54:28;94569.63;;;7.84;100.00
3178;BME280;38141;42.666;23.344;2024-03-06T05:56:59;94569.94;;;8.12;100.00
3178;BME280;38141;42.666;23.344;2024-03-06T05:59:27;94571.69;;;7.94;100.00
3178;BME280;38141;42.666;23.344;2024-03-06T06:01:55;94567.97;;;7.72;100.00
3178;BME280;38141;42.666;23.344;2024-03-06T06:04:22;94577.19;;;7.71;100.00
3178;BME280;38141;42.666;23.344;2024-03-06T06:06:49;94571.91;;;7.82;100.00
3178;BME280;38141;42.666;23.344;2024-03-06T06:09:16;94580.19;;;7.99;100.00
3178;BME280;38141;42.666;23.344;2024-03-06T06:11:43;94581.84;;;8.08;100.00
3178;BME280;38141;42.666;23.344;2024-03-06T06:14:11;94583.63;;;7.96;100.00
3178;BME280;38141;42.666;23.344;2024-03-06T06:16:39;94575.69;;;8.11;100.00
3178;BME280;38141;42.666;23.344;2024-03-06T06:19:07;94581.72;;;8.00;100.00
3178;BME280;38141;42.666;23.344;2024-03-06T06:21:34;94579.63;;;8.17;100.00
3178;BME280;38141;42.666;23.344;2024-03-06T06:24:03;94575.56;;;8.00;100.00
3178;BME280;38141;42.666;23.344;2024-03-06T06:26:30;94578.53;;;8.25;100.00
3178;BME280;38141;42.666;23.344;2024-03-06T06:28:57;94580.13;;;8.70;100.00
3178;BME280;38141;42.666;23.344;2024-03-06T06:31:24;94583.00;;;8.91;100.00
3178;BME280;38141;42.666;23.344;2024-03-06T06:33:53;94542.72;;;9.16;100.00
3178;BME280;38141;42.666;23.344;2024-03-06T06:36:20;94579.50;;;9.45;100.00
3178;BME280;38141;42.666;23.344;2024-03-06T06:38:48;94569.59;;;9.70;100.00
3178;BME280;38141;42.666;23.344;2024-03-06T06:41:16;94580.56;;;10.06;100.00
3178;BME280;38141;42.666;23.344;2024-03-06T06:43:44;94581.28;;;9.96;100.00
3178;BME280;38141;42.666;23.344;2024-03-06T06:46:11;94570.94;;;10.12;100.00
3178;BME280;38141;42.666;23.344;2024-03-06T06:48:38;94578.63;;;9.99;100.00
3178;BME280;38141;42.666;23.344;2024-03-06T06:51:07;94584.53;;;10.37;100.00
3178;BME280;38141;42.666;23.344;2024-03-06T06:53:34;94581.47;;;10.56;100.00
3178;BME280;38141;42.666;23.344;2024-03-06T06:56:01;94586.53;;;10.93;98.70
3178;BME280;38141;42.666;23.344;2024-03-06T06:58:28;94586.88;;;10.56;98.65
3178;BME280;38141;42.666;23.344;2024-03-06T07:00:55;94588.09;;;11.08;96.32
3178;BME280;38141;42.666;23.344;2024-03-06T07:03:22;94591.53;;;11.44;92.39
3178;BME280;38141;42.666;23.344;2024-03-06T07:05:55;94589.16;;;11.60;90.75
3178;BME280;38141;42.666;23.344;2024-03-06T07:08:23;94589.44;;;12.01;86.32
3178;BME280;38141;42.666;23.344;2024-03-06T07:10:51;94589.63;;;12.42;80.87
3178;BME280;38141;42.666;23.344;2024-03-06T07:13:20;94587.03;;;12.21;80.89
3178;BME280;38141;42.666;23.344;2024-03-06T07:15:47;94587.88;;;12.76;76.10
3178;BME280;38141;42.666;23.344;2024-03-06T07:18:14;94580.66;;;13.04;74.06
3178;BME280;38141;42.666;23.344;2024-03-06T07:20:41;94583.72;;;13.16;72.58
3178;BME280;38141;42.666;23.344;2024-03-06T07:23:08;94588.63;;;13.32;70.21
3178;BME280;38141;42.666;23.344;2024-03-06T07:25:36;94588.75;;;12.63;74.89
3178;BME280;38141;42.666;23.344;2024-03-06T07:28:04;94591.88;;;12.54;75.68
3178;BME280;38141;42.666;23.344;2024-03-06T07:30:31;94593.38;;;12.66;74.26
3178;BME280;38141;42.666;23.344;2024-03-06T07:32:58;94585.94;;;13.28;71.26
3178;BME280;38141;42.666;23.344;2024-03-06T07:35:25;94595.38;;;13.54;70.79
3178;BME280;38141;42.666;23.344;2024-03-06T07:37:52;94583.59;;;14.39;66.23
3178;BME280;38141;42.666;23.344;2024-03-06T07:40:19;94590.84;;;15.03;63.16
3178;BME280;38141;42.666;23.344;2024-03-06T07:42:47;94586.13;;;14.53;62.57
3178;BME280;38141;42.666;23.344;2024-03-06T07:45:14;94583.97;;;15.65;60.38
3178;BME280;38141;42.666;23.344;2024-03-06T07:47:41;94582.91;;;16.01;58.27
3178;BME280;38141;42.666;23.344;2024-03-06T07:50:10;94571.38;;;15.94;57.76
3178;BME280;38141;42.666;23.344;2024-03-06T07:52:38;94581.66;;;16.26;56.47
3178;BME280;38141;42.666;23.344;2024-03-06T07:55:05;94586.97;;;17.53;53.74
3178;BME280;38141;42.666;23.344;2024-03-06T07:57:32;94596.69;;;20.61;46.71
3178;BME280;38141;42.666;23.344;2024-03-06T08:00:01;94591.88;;;20.31;46.17
3178;BME280;38141;42.666;23.344;2024-03-06T08:02:34;94592.16;;;19.89;45.23
3178;BME280;38141;42.666;23.344;2024-03-06T08:05:03;94588.38;;;19.49;46.93
3178;BME280;38141;42.666;23.344;2024-03-06T08:07:30;94595.66;;;19.18;47.12
3178;BME280;38141;42.666;23.344;2024-03-06T08:09:57;94592.47;;;18.40;48.46
3178;BME280;38141;42.666;23.344;2024-03-06T08:12:24;94591.59;;;18.01;48.44
3178;BME280;38141;42.666;23.344;2024-03-06T08:14:51;94598.50;;;17.28;49.96
3178;BME280;38141;42.666;23.344;2024-03-06T08:17:21;94603.81;;;17.03;51.43
3178;BME280;38141;42.666;23.344;2024-03-06T08:19:48;94598.84;;;18.08;50.08
3178;BME280;38141;42.666;23.344;2024-03-06T08:22:15;94596.00;;;17.83;49.78
3178;BME280;38141;42.666;23.344;2024-03-06T08:24:42;94601.25;;;19.01;47.92
3178;BME280;38141;42.666;23.344;2024-03-06T08:27:09;94596.84;;;18.37;48.53
3178;BME280;38141;42.666;23.344;2024-03-06T08:29:36;94594.56;;;18.07;49.13
3178;BME280;38141;42.666;23.344;2024-03-06T08:32:03;94590.50;;;19.20;47.05
3178;BME280;38141;42.666;23.344;2024-03-06T08:34:32;94593.88;;;19.96;45.37
3178;BME280;38141;42.666;23.344;2024-03-06T08:36:59;94590.22;;;21.17;43.47
3178;BME280;38141;42.666;23.344;2024-03-06T08:39:26;94595.59;;;22.88;40.72
3178;BME280;38141;42.666;23.344;2024-03-06T08:41:53;94608.09;;;26.83;34.82
3178;BME280;38141;42.666;23.344;2024-03-06T08:44:21;94602.94;;;28.49;32.36
3178;BME280;38141;42.666;23.344;2024-03-06T08:46:48;94600.16;;;30.90;28.84
3178;BME280;38141;42.666;23.344;2024-03-06T08:49:15;94618.00;;;33.17;26.30
3178;BME280;38141;42.666;23.344;2024-03-06T08:51:43;94612.31;;;33.23;25.45
3178;BME280;38141;42.666;23.344;2024-03-06T08:54:11;94613.63;;;33.35;24.77
3178;BME280;38141;42.666;23.344;2024-03-06T08:56:38;94612.41;;;32.12;25.63
3178;BME280;38141;42.666;23.344;2024-03-06T08:59:05;94606.94;;;29.35;27.97
3178;BME280;38141;42.666;23.344;2024-03-06T09:01:32;94585.53;;;28.60;29.52
3178;BME280;38141;42.666;23.344;2024-03-06T09:03:59;94600.09;;;28.27;29.79
3178;BME280;38141;42.666;23.344;2024-03-06T09:06:26;94594.06;;;27.92;29.99
3178;BME280;38141;42.666;23.344;2024-03-06T09:08:55;94601.09;;;28.24;29.07
3178;BME280;38141;42.666;23.344;2024-03-06T09:11:22;94602.41;;;24.48;34.12
3178;BME280;38141;42.666;23.344;2024-03-06T09:13:49;94594.00;;;27.12;31.30
3178;BME280;38141;42.666;23.344;2024-03-06T09:16:16;94590.25;;;27.47;31.12
3178;BME280;38141;42.666;23.344;2024-03-06T09:18:43;94599.16;;;27.93;29.96
3178;BME280;38141;42.666;23.344;2024-03-06T09:21:10;94600.78;;;27.68;30.40
3178;BME280;38141;42.666;23.344;2024-03-06T09:23:37;94601.41;;;28.37;29.49
3178;BME280;38141;42.666;23.344;2024-03-06T09:26:06;94592.25;;;31.30;26.66
3178;BME280;38141;42.666;23.344;2024-03-06T09:28:33;94601.31;;;32.26;25.52
3178;BME280;38141;42.666;23.344;2024-03-06T09:31:00;94599.03;;;34.66;23.31
3178;BME280;38141;42.666;23.344;2024-03-06T09:33:27;94605.50;;;35.34;21.99
3178;BME280;38141;42.666;23.344;2024-03-06T09:35:54;94605.22;;;34.51;23.26
3178;BME280;38141;42.666;23.344;2024-03-06T09:38:22;94602.94;;;34.10;22.89
3178;BME280;38141;42.666;23.344;2024-03-06T09:40:50;94594.00;;;32.66;24.02
3178;BME280;38141;42.666;23.344;2024-03-06T09:43:18;94599.94;;;33.31;23.20
3178;BME280;38141;42.666;23.344;2024-03-06T09:45:48;94595.78;;;36.62;20.97
3178;BME280;38141;42.666;23.344;2024-03-06T09:48:19;94588.50;;;36.38;21.55
3178;BME280;38141;42.666;23.344;2024-03-06T09:50:49;94567.97;;;33.02;23.64
3178;BME280;38141;42.666;23.344;2024-03-06T09:53:18;94571.19;;;30.94;25.05
3178;BME280;38141;42.666;23.344;2024-03-06T09:55:48;94565.59;;;29.00;26.46
3178;BME280;38141;42.666;23.344;2024-03-06T09:58:16;94564.34;;;29.46;26.68
3178;BME280;38141;42.666;23.344;2024-03-06T10:00:44;94554.72;;;26.93;29.47
3178;BME280;38141;42.666;23.344;2024-03-06T10:03:13;94556.72;;;25.46;30.92
3178;BME280;38141;42.666;23.344;2024-03-06T10:05:40;94551.28;;;25.51;31.24
3178;BME280;38141;42.666;23.344;2024-03-06T10:08:09;94553.63;;;26.60;29.94
3178;BME280;38141;42.666;23.344;2024-03-06T10:10:36;94554.44;;;27.23;29.28
3178;BME280;38141;42.666;23.344;2024-03-06T10:13:03;94538.31;;;26.44;29.65
3178;BME280;38141;42.666;23.344;2024-03-06T10:15:32;94538.59;;;25.80;30.79
3178;BME280;38141;42.666;23.344;2024-03-06T10:18:15;94539.97;;;25.70;30.75
3178;BME280;38141;42.666;23.344;2024-03-06T10:20:43;94544.75;;;27.13;29.58
3178;BME280;38141;42.666;23.344;2024-03-06T10:23:10;94538.31;;;26.44;30.09
3178;BME280;38141;42.666;23.344;2024-03-06T10:25:37;94536.78;;;25.77;30.25
3178;BME280;38141;42.666;23.344;2024-03-06T10:28:06;94536.47;;;27.18;28.78
3178;BME280;38141;42.666;23.344;2024-03-06T10:30:34;94529.41;;;27.17;28.58
3178;BME280;38141;42.666;23.344;2024-03-06T10:33:02;94534.56;;;27.35;28.76
3178;BME280;38141;42.666;23.344;2024-03-06T10:35:31;94523.72;;;26.43;29.80
3178;BME280;38141;42.666;23.344;2024-03-06T10:38:00;94526.72;;;24.21;31.48
3178;BME280;38141;42.666;23.344;2024-03-06T10:40:31;94519.16;;;23.36;32.69
3178;BME280;38141;42.666;23.344;2024-03-06T10:42:58;94519.31;;;24.71;31.68
3178;BME280;38141;42.666;23.344;2024-03-06T10:45:40;94507.31;;;24.60;31.41
3178;BME280;38141;42.666;23.344;2024-03-06T10:48:08;94507.00;;;23.52;32.50
3178;BME280;38141;42.666;23.344;2024-03-06T10:50:39;94501.75;;;24.16;31.91
3178;BME280;38141;42.666;23.344;2024-03-06T10:53:09;94507.50;;;24.56;31.86
3178;BME280;38141;42.666;23.344;2024-03-06T10:55:37;94480.75;;;25.32;30.66
3178;BME280;38141;42.666;23.344;2024-03-06T10:58:05;94466.28;;;23.61;32.72
3178;BME280;38141;42.666;23.344;2024-03-06T11:00:37;94474.88;;;23.07;33.28
3178;BME280;38141;42.666;23.344;2024-03-06T11:03:05;94475.31;;;22.30;34.37
3178;BME280;38141;42.666;23.344;2024-03-06T11:05:35;94474.88;;;21.59;35.28
3178;BME280;38141;42.666;23.344;2024-03-06T11:08:07;94443.25;;;22.42;34.30
3178;BME280;38141;42.666;23.344;2024-03-06T11:10:36;94471.72;;;23.70;32.92
3178;BME280;38141;42.666;23.344;2024-03-06T11:13:08;94455.34;;;23.81;32.62
3178;BME280;38141;42.666;23.344;2024-03-06T11:15:35;94454.25;;;23.40;32.99
3178;BME280;38141;42.666;23.344;2024-03-06T11:21:30;94415.13;;;23.42;32.08
3178;BME280;38141;42.666;23.344;2024-03-06T11:24:18;94442.34;;;24.26;31.37
3178;BME280;38141;42.666;23.344;2024-03-06T11:26:49;94421.84;;;24.47;31.15
3178;BME280;38141;42.666;23.344;2024-03-06T11:29:18;94446.28;;;23.66;31.92
3178;BME280;38141;42.666;23.344;2024-03-06T11:32:04;94431.47;;;24.22;31.04
3178;BME280;38141;42.666;23.344;2024-03-06T11:34:34;94421.19;;;24.38;30.71
3178;BME280;38141;42.666;23.344;2024-03-06T11:37:04;94406.47;;;23.11;32.17
3178;BME280;38141;42.666;23.344;2024-03-06T11:39:39;94400.63;;;23.32;31.84
3178;BME280;38141;42.666;23.344;2024-03-06T11:42:13;94422.50;;;23.98;31.03
3178;BME280;38141;42.666;23.344;2024-03-06T11:44:53;94431.00;;;23.56;31.58
3178;BME280;38141;42.666;23.344;2024-03-06T11:47:21;94389.19;;;24.16;29.92
3178;BME280;38141;42.666;23.344;2024-03-06T11:49:49;94392.09;;;24.77;28.92
3178;BME280;38141;42.666;23.344;2024-03-06T11:52:19;94414.59;;;24.99;29.29
3178;BME280;38141;42.666;23.344;2024-03-06T11:54:47;94416.00;;;25.09;29.83
3178;BME280;38141;42.666;23.344;2024-03-06T11:57:14;94399.53;;;25.20;29.59
3178;BME280;38141;42.666;23.344;2024-03-06T11:59:46;94385.25;;;24.72;29.52
3178;BME280;38141;42.666;23.344;2024-03-06T12:02:13;94406.78;;;24.48;29.74
3178;BME280;38141;42.666;23.344;2024-03-06T12:04:43;94394.00;;;23.92;30.30
3178;BME280;38141;42.666;23.344;2024-03-06T12:07:11;94405.66;;;24.25;30.75
3178;BME280;38141;42.666;23.344;2024-03-06T12:09:39;94398.13;;;24.75;29.62
3178;BME280;38141;42.666;23.344;2024-03-06T12:12:08;94398.06;;;24.70;29.66
3178;BME280;38141;42.666;23.344;2024-03-06T12:14:36;94400.56;;;24.09;30.80
3178;BME280;38141;42.666;23.344;2024-03-06T12:17:05;94376.38;;;22.32;32.65
3178;BME280;38141;42.666;23.344;2024-03-06T12:19:34;94369.91;;;21.93;32.65
3178;BME280;38141;42.666;23.344;2024-03-06T12:22:03;94390.84;;;22.84;32.44
3178;BME280;38141;42.666;23.344;2024-03-06T12:24:30;94363.09;;;22.12;33.25
3178;BME280;38141;42.666;23.344;2024-03-06T12:27:02;94384.28;;;22.48;33.06
3178;BME280;38141;42.666;23.344;2024-03-06T12:29:32;94380.25;;;22.16;33.27
3178;BME280;38141;42.666;23.344;2024-03-06T12:32:00;94389.69;;;21.55;33.32
3178;BME280;38141;42.666;23.344;2024-03-06T12:34:31;94392.53;;;20.79;34.86
3178;BME280;38141;42.666;23.344;2024-03-06T12:37:08;94381.00;;;21.29;34.54
3178;BME280;38141;42.666;23.344;2024-03-06T12:39:36;94388.81;;;20.64;34.78
3178;BME280;38141;42.666;23.344;2024-03-06T12:42:03;94372.38;;;20.33;35.15
3178;BME280;38141;42.666;23.344;2024-03-06T12:44:33;94382.25;;;20.21;36.43
3178;BME280;38141;42.666;23.344;2024-03-06T12:47:00;94354.97;;;19.96;37.77
3178;BME280;38141;42.666;23.344;2024-03-06T12:49:28;94345.69;;;19.28;40.00
3178;BME280;38141;42.666;23.344;2024-03-06T12:51:55;94352.28;;;18.75;41.15
3178;BME280;38141;42.666;23.344;2024-03-06T12:54:23;94360.53;;;18.62;42.54
3178;BME280;38141;42.666;23.344;2024-03-06T12:56:52;94389.78;;;18.52;43.11
3178;BME280;38141;42.666;23.344;2024-03-06T12:59:19;94361.09;;;18.06;43.50
3178;BME280;38141;42.666;23.344;2024-03-06T13:01:47;94386.63;;;18.03;43.85
3178;BME280;38141;42.666;23.344;2024-03-06T13:04:15;94385.72;;;18.44;43.82
3178;BME280;38141;42.666;23.344;2024-03-06T13:06:42;94390.25;;;18.85;43.19
3178;BME280;38141;42.666;23.344;2024-03-06T13:09:11;94390.97;;;18.51;44.21